Terminal Aerodrome Forecast
Issued by NWS

Home | Current Version | Previous Version | Text Only | Print | Product List | Glossary On
Versions: 1 2 3 4 5 6 7 8 9 10 11 12 13
000
FTUS42 KTAE 250522
TAFDHN
TAF
KDHN 250522Z 2506/2606 12011KT P6SM SKC
     FM250800 09007KT P6SM BKN015
     FM251400 14009KT P6SM SCT040 SCT200
     FM251600 16010KT P6SM VCTS SCT025CB BKN040
     FM252000 16010KT P6SM -TSRA SCT030CB BKN050
      TEMPO 2520/2524 VRB15G25KT 3SM +TSRA BKN025CB=

USA.gov is the U.S. government's official web portal to all federal, state and local government web resources and services.